Time;durP1;ratioP1;P1;durP2;ratioP2;P2;SDS_P1;SDS_P2;PMS_P1;PMS_P2;Temp;Humidity;BMP_temperature;BMP_pressure;BME280_temperature;BME280_humidity;BME280_pressure;Samples;Min_cycle;Max_cycle;Signal;HPM_P1;HPM_P2
2022/04/14 00:01:47;;;;;;;9.95;2.67;;;;;;;1.62;93.14;99940.41;4992249;28;20129;-65
2022/04/14 00:04:13;;;;;;;8.32;2.80;;;;;;;1.58;92.94;99931.72;4992500;28;20479;-63
2022/04/14 00:06:38;;;;;;;8.60;2.55;;;;;;;1.55;93.05;99931.91;4974606;28;20545;-64
2022/04/14 00:09:04;;;;;;;8.48;2.50;;;;;;;1.45;93.55;99920.03;4991137;28;20713;-65
2022/04/14 00:11:30;;;;;;;9.02;2.67;;;;;;;1.52;93.69;99924.06;4992446;28;20486;-65
2022/04/14 00:13:56;;;;;;;7.22;2.58;;;;;;;1.57;93.56;99940.69;4990415;28;20093;-63
2022/04/14 00:16:22;;;;;;;8.00;2.53;;;;;;;1.34;93.57;99914.47;4992163;28;20500;-64
2022/04/14 00:18:48;;;;;;;7.78;2.92;;;;;;;1.46;94.21;99948.38;4990519;28;20053;-63
2022/04/14 00:21:14;;;;;;;9.43;3.10;;;;;;;1.44;94.71;99944.97;4991729;28;20047;-64
2022/04/14 00:23:40;;;;;;;7.03;2.58;;;;;;;1.41;95.09;99947.81;4990520;28;20120;-66
2022/04/14 00:26:05;;;;;;;10.27;2.72;;;;;;;1.32;95.09;99935.88;4990747;28;20046;-63
2022/04/14 00:28:31;;;;;;;8.63;2.58;;;;;;;1.37;95.02;99932.94;4990753;28;20058;-64
2022/04/14 00:30:59;;;;;;;10.43;2.60;;;;;;;1.33;94.98;99942.06;4990896;28;20383;-64
2022/04/14 00:33:26;;;;;;;9.52;3.05;;;;;;;1.25;96.01;99928.31;4991050;28;20042;-63
2022/04/14 00:35:52;;;;;;;7.95;2.92;;;;;;;1.18;95.30;99923.31;4975090;28;20060;-64
2022/04/14 00:38:18;;;;;;;7.82;2.80;;;;;;;1.20;95.46;99926.72;4993015;28;20447;-64
2022/04/14 00:40:44;;;;;;;8.75;2.47;;;;;;;1.17;96.03;99918.94;4991446;28;20053;-63
2022/04/14 00:43:10;;;;;;;7.97;2.58;;;;;;;1.20;95.68;99934.72;4975158;28;20047;-64
2022/04/14 00:45:36;;;;;;;8.18;2.47;;;;;;;1.22;95.99;99925.81;4992722;28;20042;-62
2022/04/14 00:48:02;;;;;;;7.07;2.05;;;;;;;1.14;95.46;99927.09;4992628;28;20436;-64
2022/04/14 00:50:28;;;;;;;9.05;2.63;;;;;;;1.16;95.64;99927.84;4974939;28;20046;-62
2022/04/14 00:52:54;;;;;;;7.60;2.65;;;;;;;1.12;95.96;99928.97;4990986;28;20529;-66
2022/04/14 00:55:20;;;;;;;8.82;2.35;;;;;;;1.10;95.94;99932.69;4931507;28;1298002;-65
2022/04/14 00:57:46;;;;;;;8.35;2.58;;;;;;;0.93;96.37;99912.31;4976661;28;20046;-64
2022/04/14 01:00:12;;;;;;;9.25;2.63;;;;;;;1.01;97.08;99926.03;4992753;28;20081;-63
2022/04/14 01:02:38;;;;;;;10.00;2.60;;;;;;;0.91;96.58;99914.19;4993807;28;20422;-63
2022/04/14 01:05:04;;;;;;;8.20;2.85;;;;;;;0.98;96.69;99923.53;4992073;28;20050;-64
2022/04/14 01:07:34;;;;;;;7.60;2.70;;;;;;;1.00;96.67;99932.31;4993162;28;20054;-63
2022/04/14 01:10:01;;;;;;;7.68;2.97;;;;;;;0.95;96.66;99926.38;4975350;28;20054;-63
2022/04/14 01:12:27;;;;;;;8.60;2.65;;;;;;;0.87;97.53;99923.28;4993054;28;20095;-63
2022/04/14 01:14:53;;;;;;;7.18;2.10;;;;;;;0.89;97.26;99921.41;4990913;28;20054;-62
2022/04/14 01:17:18;;;;;;;8.93;2.90;;;;;;;0.86;97.72;99926.88;4992203;28;20619;-63
2022/04/14 01:19:44;;;;;;;8.68;2.58;;;;;;;0.84;98.12;99934.97;4992277;28;20069;-63
2022/04/14 01:22:24;;;;;;;7.97;3.10;;;;;;;0.69;98.29;99912.66;4992278;28;20139;-63
2022/04/14 01:24:55;;;;;;;8.32;2.60;;;;;;;0.78;98.23;99935.28;4990018;28;20051;-63
2022/04/14 01:27:22;;;;;;;9.20;2.90;;;;;;;0.72;98.29;99936.47;4975129;28;20038;-64
2022/04/14 01:29:51;;;;;;;10.15;2.75;;;;;;;0.77;98.34;99943.34;4993108;28;20145;-63
2022/04/14 01:32:19;;;;;;;8.07;1.98;;;;;;;0.73;99.02;99937.31;4992956;28;20095;-65
2022/04/14 01:34:45;;;;;;;9.27;2.90;;;;;;;0.75;98.96;99939.91;4991343;28;20049;-64
2022/04/14 01:37:11;;;;;;;8.07;2.60;;;;;;;0.72;98.60;99948.91;4975348;28;20096;-63
2022/04/14 01:39:37;;;;;;;8.18;2.80;;;;;;;0.68;98.73;99934.06;4975460;28;20048;-64
2022/04/14 01:42:03;;;;;;;8.57;3.15;;;;;;;0.71;98.43;99945.38;4992680;28;20038;-63
2022/04/14 01:44:29;;;;;;;9.27;2.90;;;;;;;0.78;98.44;99950.41;4991547;28;20047;-63
2022/04/14 01:46:54;;;;;;;8.93;3.13;;;;;;;0.64;98.52;99927.19;4991840;28;20446;-64
2022/04/14 01:49:20;;;;;;;9.18;3.13;;;;;;;0.72;97.88;99927.63;4975456;28;20038;-63
2022/04/14 01:51:48;;;;;;;10.80;2.47;;;;;;;0.85;97.40;99947.31;4991174;28;20046;-65
2022/04/14 01:54:14;;;;;;;7.80;2.20;;;;;;;0.83;97.10;99932.38;4991673;28;20072;-63
2022/04/14 01:56:41;;;;;;;8.00;2.50;;;;;;;0.72;97.48;99930.28;4991306;28;20090;-63
2022/04/14 01:59:08;;;;;;;9.00;2.58;;;;;;;0.72;97.31;99941.78;4975317;28;20118;-63
2022/04/14 02:01:33;;;;;;;7.68;2.40;;;;;;;0.66;97.45;99942.13;4974526;28;20046;-64
2022/04/14 02:04:01;;;;;;;6.90;2.30;;;;;;;0.61;97.22;99936.16;4991120;28;20557;-64
2022/04/14 02:06:27;;;;;;;9.27;2.72;;;;;;;0.57;97.59;99942.59;4992351;28;20503;-64
2022/04/14 02:08:53;;;;;;;9.10;2.60;;;;;;;0.54;98.00;99942.75;4991454;28;20129;-65
2022/04/14 02:11:19;;;;;;;8.95;2.63;;;;;;;0.48;97.88;99948.41;4973799;28;20423;-65
2022/04/14 02:13:44;;;;;;;9.13;2.65;;;;;;;0.46;98.70;99950.28;4990817;28;20100;-64
2022/04/14 02:16:10;;;;;;;8.85;2.63;;;;;;;0.45;98.91;99952.09;4974506;28;20053;-63
2022/04/14 02:18:36;;;;;;;7.32;2.83;;;;;;;0.38;98.88;99949.84;4992113;28;20589;-63
2022/04/14 02:21:02;;;;;;;7.93;2.70;;;;;;;0.40;99.22;99955.91;4990653;28;20565;-64
2022/04/14 02:23:28;;;;;;;8.05;2.55;;;;;;;0.39;99.27;99959.53;4990645;28;20042;-64
2022/04/14 02:25:53;;;;;;;7.53;2.13;;;;;;;0.42;98.74;99951.38;4991825;28;20057;-64
2022/04/14 02:28:19;;;;;;;10.68;3.55;;;;;;;0.28;98.59;99945.91;4992112;28;20050;-63
2022/04/14 02:30:46;;;;;;;7.38;2.60;;;;;;;0.44;99.57;99976.13;4974132;28;20057;-64
2022/04/14 02:33:12;;;;;;;13.13;3.35;;;;;;;0.46;98.88;99958.25;4991052;28;20127;-63
2022/04/14 02:35:37;;;;;;;8.07;2.83;;;;;;;0.45;98.53;99964.53;4992169;28;20046;-64
2022/04/14 02:38:03;;;;;;;7.63;2.67;;;;;;;0.39;98.43;99959.53;4990558;28;20042;-63
2022/04/14 02:40:29;;;;;;;8.85;2.60;;;;;;;0.39;98.80;99970.16;4991999;28;20061;-62
2022/04/14 02:42:56;;;;;;;8.48;3.22;;;;;;;0.39;99.04;99971.00;4991535;28;20065;-64
2022/04/14 02:45:24;;;;;;;7.80;2.75;;;;;;;0.41;98.72;99962.97;4989818;28;20118;-63
2022/04/14 02:47:51;;;;;;;10.30;2.78;;;;;;;0.46;98.72;99966.25;4992176;28;20042;-64
2022/04/14 02:50:17;;;;;;;8.75;2.60;;;;;;;0.40;98.35;99958.56;4990294;28;20070;-64
2022/04/14 02:52:42;;;;;;;9.68;2.90;;;;;;;0.32;98.40;99952.78;4957643;28;20069;-67
2022/04/14 02:55:09;;;;;;;10.02;3.10;;;;;;;0.30;98.42;99949.38;4973809;28;20073;-64
2022/04/14 02:57:36;;;;;;;7.50;2.72;;;;;;;0.48;97.62;99975.00;4991712;28;20541;-63
2022/04/14 03:00:09;;;;;;;10.13;2.70;;;;;;;0.54;97.97;99985.31;4990757;28;20130;-63
2022/04/14 03:02:35;;;;;;;10.85;2.50;;;;;;;0.57;97.36;99997.59;4990740;28;20077;-65
2022/04/14 03:05:02;;;;;;;10.00;3.03;;;;;;;0.58;97.43;99986.88;4989580;28;20130;-64
2022/04/14 03:07:29;;;;;;;8.63;2.97;;;;;;;0.56;96.69;99986.09;4957537;28;20046;-69
2022/04/14 03:09:54;;;;;;;8.20;2.50;;;;;;;0.57;96.80;99987.81;4973433;28;20100;-65
2022/04/14 03:12:20;;;;;;;8.30;3.15;;;;;;;0.50;96.88;99962.47;4989651;28;20065;-63
2022/04/14 03:14:47;;;;;;;8.55;2.70;;;;;;;0.57;96.23;99985.16;4988751;28;20377;-63
2022/04/14 03:17:13;;;;;;;8.85;2.83;;;;;;;0.62;95.68;99993.78;4956775;28;20070;-64
2022/04/14 03:19:39;;;;;;;7.10;2.40;;;;;;;0.57;95.71;99969.19;4972930;28;20039;-63
2022/04/14 03:22:04;;;;;;;9.07;2.40;;;;;;;0.76;94.95;99994.84;4989571;28;20046;-63
2022/04/14 03:24:30;;;;;;;8.55;2.33;;;;;;;0.96;94.17;99995.50;4990935;28;20467;-64
2022/04/14 03:26:56;;;;;;;7.15;2.25;;;;;;;1.01;93.46;99999.72;4990461;28;20517;-64
2022/04/14 03:29:22;;;;;;;9.48;2.50;;;;;;;1.17;92.56;100006.81;4972735;28;20046;-65
2022/04/14 03:31:48;;;;;;;8.30;2.55;;;;;;;1.15;91.85;100007.81;4989621;28;20056;-64
2022/04/14 03:34:13;;;;;;;9.20;2.20;;;;;;;1.23;91.43;100015.41;4989299;28;20042;-65
2022/04/14 03:36:39;;;;;;;6.50;1.67;;;;;;;1.35;90.69;100015.59;4989073;28;20490;-64
2022/04/14 03:39:05;;;;;;;7.28;2.47;;;;;;;1.46;91.06;100028.31;4973043;28;20112;-65
2022/04/14 03:41:31;;;;;;;7.10;2.40;;;;;;;1.48;90.36;100026.44;4990194;28;20410;-65
2022/04/14 03:43:57;;;;;;;8.20;2.47;;;;;;;1.56;90.18;100028.66;4988184;28;20371;-64
2022/04/14 03:46:23;;;;;;;7.82;2.38;;;;;;;1.68;89.25;100017.31;4971914;28;20057;-65
2022/04/14 03:48:49;;;;;;;7.95;2.15;;;;;;;1.78;88.75;100025.66;4991054;28;20042;-64
2022/04/14 03:51:15;;;;;;;8.05;1.65;;;;;;;1.73;88.35;100003.75;4991780;28;20201;-65
2022/04/14 03:53:42;;;;;;;8.32;1.75;;;;;;;1.81;88.45;100017.50;4991757;28;20142;-65
2022/04/14 03:56:08;;;;;;;9.43;2.25;;;;;;;2.08;86.92;100023.91;4975395;28;20514;-65
2022/04/14 03:58:33;;;;;;;14.02;2.88;;;;;;;1.97;86.99;100007.66;4993192;28;20138;-65
2022/04/14 04:00:59;;;;;;;9.23;2.20;;;;;;;2.26;85.79;100015.78;4959017;28;20092;-64
2022/04/14 04:03:25;;;;;;;10.38;2.80;;;;;;;2.31;85.20;99987.06;4981479;28;20055;-65
2022/04/14 04:05:52;;;;;;;11.52;2.63;;;;;;;2.07;85.63;100008.00;4956797;28;20134;-66
2022/04/14 04:08:18;;;;;;;8.40;2.72;;;;;;;1.83;86.97;100005.81;4952820;28;20121;-65
2022/04/14 04:10:44;;;;;;;8.85;2.60;;;;;;;1.79;87.91;100019.38;4958312;28;20161;-66
2022/04/14 04:13:11;;;;;;;9.20;2.25;;;;;;;1.79;88.05;100025.59;4964828;28;20076;-65
2022/04/14 04:15:37;;;;;;;7.65;2.40;;;;;;;1.76;88.36;100025.75;4971045;28;20085;-66
2022/04/14 04:18:04;;;;;;;11.10;2.40;;;;;;;1.56;88.62;99986.91;4969405;28;20091;-66
2022/04/14 04:20:31;;;;;;;18.15;3.58;;;;;;;1.62;88.67;100007.88;4942191;28;20039;-66
2022/04/14 04:22:57;;;;;;;7.20;2.53;;;;;;;1.69;88.12;100017.25;4979090;28;20503;-67
2022/04/14 04:25:23;;;;;;;9.20;3.30;;;;;;;1.73;88.50;100020.59;4969904;28;20163;-72
2022/04/14 04:27:49;;;;;;;7.15;2.28;;;;;;;1.70;88.29;100026.09;4945709;28;20437;-67
2022/04/14 04:30:15;;;;;;;8.27;2.55;;;;;;;1.71;88.81;100017.16;4953322;28;20053;-63
2022/04/14 04:32:41;;;;;;;10.02;2.90;;;;;;;1.77;88.52;100010.63;4972061;28;20054;-67
2022/04/14 04:35:08;;;;;;;7.28;2.70;;;;;;;1.83;88.97;100015.59;4955037;28;20046;-66
2022/04/14 04:37:34;;;;;;;9.23;2.92;;;;;;;1.81;88.27;100010.34;4955277;28;20050;-67
2022/04/14 04:40:00;;;;;;;9.73;3.55;;;;;;;1.86;88.28;100015.44;4939298;28;20108;-68
2022/04/14 04:42:29;;;;;;;12.07;2.70;;;;;;;1.88;88.08;100013.53;4941036;28;20109;-66
2022/04/14 04:44:55;;;;;;;12.82;3.33;;;;;;;1.97;87.41;100018.34;4971854;28;20039;-66
2022/04/14 04:47:20;;;;;;;13.27;3.20;;;;;;;2.07;87.53;100024.88;4938987;28;20137;-66
2022/04/14 04:49:47;;;;;;;9.65;2.45;;;;;;;2.07;86.70;100019.53;4956266;28;20406;-65
2022/04/14 04:52:14;;;;;;;9.88;2.65;;;;;;;2.02;86.31;100004.75;4940236;28;20057;-66
2022/04/14 04:54:40;;;;;;;11.02;2.35;;;;;;;2.15;85.32;100011.94;4955691;28;20051;-66
2022/04/14 04:57:06;;;;;;;8.18;2.60;;;;;;;2.16;85.04;100005.69;4939608;28;20066;-65
2022/04/14 04:59:32;;;;;;;8.30;2.72;;;;;;;2.24;84.31;99999.03;4938390;28;20047;-71
2022/04/14 05:01:58;;;;;;;9.63;2.65;;;;;;;2.24;83.69;100004.38;4956041;28;20473;-66
2022/04/14 05:04:23;;;;;;;11.45;3.35;;;;;;;2.37;83.89;100000.00;4955518;28;20046;-68
2022/04/14 05:06:49;;;;;;;18.00;3.47;;;;;;;2.57;83.66;100005.03;4939930;28;20054;-66
2022/04/14 05:09:16;;;;;;;9.27;2.90;;;;;;;2.65;82.37;100009.91;4972535;28;20452;-66
2022/04/14 05:11:42;;;;;;;8.52;2.28;;;;;;;2.79;81.28;100015.28;4972112;28;20062;-66
2022/04/14 05:14:09;;;;;;;11.93;3.42;;;;;;;2.85;80.38;100003.34;4971413;28;20066;-66
2022/04/14 05:16:35;;;;;;;16.13;3.00;;;;;;;2.92;80.32;100002.03;4940057;28;20050;-66
2022/04/14 05:19:02;;;;;;;8.05;2.55;;;;;;;2.98;78.68;100015.00;4939418;28;20082;-67
2022/04/14 05:21:28;;;;;;;10.48;2.55;;;;;;;3.07;78.71;100011.78;4987426;28;20053;-66
2022/04/14 05:23:53;;;;;;;8.13;2.60;;;;;;;3.17;78.63;100008.53;4955573;28;20046;-67
2022/04/14 05:26:20;;;;;;;12.45;2.67;;;;;;;3.48;78.17;100008.34;4955731;28;20049;-64
2022/04/14 05:28:46;;;;;;;18.48;3.30;;;;;;;4.46;74.53;99990.31;4938598;28;20146;-66
2022/04/14 05:31:12;;;;;;;10.10;2.65;;;;;;;5.87;68.68;99994.59;4970567;28;20099;-67
2022/04/14 05:33:38;;;;;;;13.93;3.65;;;;;;;6.75;64.00;99986.22;4954632;28;20141;-65
2022/04/14 05:36:04;;;;;;;8.95;2.40;;;;;;;8.05;60.08;100001.84;4970496;28;20042;-66
2022/04/14 05:38:30;;;;;;;10.27;2.60;;;;;;;8.05;58.34;99999.16;4938112;28;20157;-67
2022/04/14 05:40:56;;;;;;;14.73;2.40;;;;;;;8.94;56.12;99997.91;4969912;28;20503;-66
2022/04/14 05:43:24;;;;;;;35.50;2.90;;;;;;;9.67;53.76;100004.09;4954363;28;20365;-65
2022/04/14 05:45:50;;;;;;;12.50;2.85;;;;;;;10.29;50.24;99991.34;4971604;28;20046;-66
2022/04/14 05:48:17;;;;;;;13.95;2.55;;;;;;;10.49;49.28;99981.38;4969984;28;20472;-66
2022/04/14 05:50:46;;;;;;;6.65;2.08;;;;;;;11.15;47.82;100002.19;4971768;28;20482;-66
2022/04/14 05:53:12;;;;;;;6.43;2.80;;;;;;;10.95;46.54;100007.66;4970171;28;20140;-66
2022/04/14 05:55:40;;;;;;;11.95;2.00;;;;;;;10.94;45.61;99984.31;4969737;28;20406;-67
2022/04/14 05:58:06;;;;;;;8.90;2.05;;;;;;;11.77;43.76;100001.56;4954179;28;20116;-66
2022/04/14 06:00:33;;;;;;;8.02;1.80;;;;;;;10.37;45.93;99999.59;4969947;28;20051;-66
2022/04/14 06:03:00;;;;;;;21.25;2.90;;;;;;;11.78;44.47;99999.72;4970042;28;20051;-65
2022/04/14 06:05:30;;;;;;;8.05;2.25;;;;;;;12.15;43.34;99999.66;4969346;28;20046;-66
2022/04/14 06:07:56;;;;;;;14.02;3.20;;;;;;;12.75;41.60;99994.47;4970169;28;20212;-66
2022/04/14 06:10:23;;;;;;;17.10;2.75;;;;;;;13.08;40.31;99996.56;4954244;28;20054;-66
2022/04/14 06:12:49;;;;;;;13.20;2.55;;;;;;;12.96;40.51;100009.56;4954989;28;20053;-66
2022/04/14 06:15:16;;;;;;;13.00;2.67;;;;;;;13.28;39.03;99995.41;4955457;28;20109;-67
2022/04/14 06:17:42;;;;;;;14.02;2.72;;;;;;;13.18;38.83;100009.03;4970716;28;20198;-66
2022/04/14 06:20:10;;;;;;;11.95;2.80;;;;;;;14.36;38.12;100003.81;4969870;28;20494;-67
2022/04/14 06:22:40;;;;;;;12.02;2.15;;;;;;;15.18;36.20;100000.13;4954054;28;20061;-66
2022/04/14 06:25:12;;;;;;;9.15;3.05;;;;;;;15.46;35.60;100010.63;4969798;28;20058;-68
2022/04/14 06:27:42;;;;;;;11.55;1.85;;;;;;;15.70;33.77;100014.34;4954528;28;20510;-66
2022/04/14 06:30:10;;;;;;;14.50;2.42;;;;;;;15.15;34.50;100011.38;4954079;28;20046;-67
2022/04/14 06:32:36;;;;;;;20.83;2.90;;;;;;;15.57;34.49;100010.25;4938242;28;20118;-66
2022/04/14 06:35:03;;;;;;;18.65;2.72;;;;;;;15.39;34.27;100012.34;4938350;28;20039;-67
2022/04/14 06:37:29;;;;;;;90.18;10.13;;;;;;;16.15;33.70;100008.19;4954261;28;20058;-66
2022/04/14 06:39:55;;;;;;;23.60;2.30;;;;;;;15.77;32.68;100020.81;4969872;28;20387;-66
2022/04/14 06:42:22;;;;;;;323.90;35.88;;;;;;;15.86;34.40;100019.72;4937463;28;20091;-66
2022/04/14 06:44:49;;;;;;;15.55;1.98;;;;;;;15.27;32.85;100014.59;4953406;28;20433;-66
2022/04/14 06:47:15;;;;;;;15.45;2.17;;;;;;;15.41;32.62;100013.03;4969097;28;20051;-68
2022/04/14 06:49:41;;;;;;;9.40;2.30;;;;;;;15.32;33.55;100005.88;4953013;28;20486;-67
2022/04/14 06:52:07;;;;;;;10.50;2.22;;;;;;;14.91;33.21;100016.81;4969453;28;20081;-66
2022/04/14 06:54:33;;;;;;;19.83;2.47;;;;;;;16.77;31.01;100010.03;4921256;28;20047;-68
2022/04/14 06:56:59;;;;;;;32.15;4.10;;;;;;;16.34;32.29;100013.22;4969417;28;20471;-67
2022/04/14 06:59:25;;;;;;;12.85;2.10;;;;;;;17.71;30.33;100010.50;4953281;28;20070;-67
2022/04/14 07:01:51;;;;;;;13.98;2.70;;;;;;;18.83;29.18;100016.56;4953409;28;20046;-67
2022/04/14 07:04:17;;;;;;;233.20;28.05;;;;;;;18.94;28.52;100017.88;4953383;28;20101;-67
2022/04/14 07:06:43;;;;;;;9.77;2.53;;;;;;;18.99;28.86;100009.94;4952945;28;20526;-66
2022/04/14 07:09:08;;;;;;;9.18;2.03;;;;;;;18.50;28.38;99999.72;4968945;28;20039;-67
2022/04/14 07:11:34;;;;;;;7.93;2.25;;;;;;;17.40;28.97;100008.78;4936914;28;20047;-65
2022/04/14 07:14:00;;;;;;;7.43;2.13;;;;;;;18.45;28.35;100013.16;4953270;28;20039;-67
2022/04/14 07:16:26;;;;;;;15.82;2.53;;;;;;;16.92;29.37;99994.53;4969139;28;20059;-66
2022/04/14 07:18:51;;;;;;;9.30;2.20;;;;;;;18.86;27.75;99999.69;4952930;28;20047;-67
2022/04/14 07:21:17;;;;;;;9.38;1.77;;;;;;;17.92;29.14;100002.41;4953397;28;20407;-67
2022/04/14 07:23:43;;;;;;;9.13;2.25;;;;;;;18.88;26.88;100008.56;4955961;28;20145;-67
2022/04/14 07:26:09;;;;;;;40.38;4.50;;;;;;;18.43;28.18;100007.88;4940788;28;20043;-66
2022/04/14 07:28:35;;;;;;;8.18;2.15;;;;;;;18.36;27.74;100006.13;4972749;28;20047;-67
2022/04/14 07:31:02;;;;;;;1077.78;112.03;;;;;;;18.26;28.34;100009.16;4940665;28;20451;-67
2022/04/14 07:33:28;;;;;;;13.90;2.47;;;;;;;18.21;27.84;100009.72;4972957;28;20046;-67
2022/04/14 07:35:54;;;;;;;13.45;2.38;;;;;;;18.04;28.28;99998.16;4973086;28;20138;-66
2022/04/14 07:38:20;;;;;;;17.25;2.50;;;;;;;19.78;26.14;99993.22;4972488;28;20141;-67
2022/04/14 07:40:46;;;;;;;7.68;2.00;;;;;;;18.78;26.28;99999.84;4972167;28;20412;-70
2022/04/14 07:43:12;;;;;;;35.60;4.90;;;;;;;19.16;26.39;99999.53;4939559;28;20051;-68
2022/04/14 07:45:39;;;;;;;13.30;2.33;;;;;;;20.12;26.13;99994.25;4971869;28;20042;-68
2022/04/14 07:48:05;;;;;;;12.88;2.38;;;;;;;19.67;24.70;99993.81;4939841;28;20046;-67
2022/04/14 07:50:32;;;;;;;11.57;2.22;;;;;;;19.38;25.50;99997.59;4940134;28;20419;-68
2022/04/14 07:52:59;;;;;;;11.65;2.30;;;;;;;20.40;24.50;99992.25;4940845;28;20145;-68
2022/04/14 07:55:28;;;;;;;7.82;2.33;;;;;;;20.16;25.26;100001.88;4956820;28;20150;-68
2022/04/14 07:57:55;;;;;;;;;;;;;;;20.01;25.89;100005.81;4972768;28;20061;-69
2022/04/14 08:00:21;;;;;;;22.83;3.53;;;;;;;19.69;24.91;99999.94;4988356;28;20445;-67
2022/04/14 08:02:58;;;;;;;8.52;2.25;;;;;;;19.93;24.19;99991.22;4956263;28;20070;-66
2022/04/14 08:05:27;;;;;;;9.07;2.30;;;;;;;20.78;23.48;99977.97;4972439;28;20142;-67
2022/04/14 08:07:53;;;;;;;7.75;2.20;;;;;;;20.92;23.12;99998.91;4940056;28;20154;-68
2022/04/14 08:10:19;;;;;;;22.92;3.38;;;;;;;19.99;23.89;100001.38;4940092;28;20133;-69
2022/04/14 08:12:45;;;;;;;18.63;2.90;;;;;;;20.21;24.13;99993.00;4939956;28;20083;-68
2022/04/14 08:15:12;;;;;;;13.88;2.20;;;;;;;21.49;23.08;99993.00;4956426;28;20488;-67
2022/04/14 08:17:41;;;;;;;16.25;2.83;;;;;;;21.94;22.46;99987.59;4987962;28;20134;-68
2022/04/14 08:20:08;;;;;;;10.18;2.40;;;;;;;21.77;22.41;99990.84;4940074;28;20058;-67
2022/04/14 08:22:49;;;;;;;8.45;2.50;;;;;;;22.17;22.14;99996.22;4956281;28;20047;-68
2022/04/14 08:25:18;;;;;;;16.85;2.50;;;;;;;22.31;21.93;100006.13;4972231;28;20049;-68
2022/04/14 08:27:44;;;;;;;9.38;2.08;;;;;;;21.77;22.14;99993.59;4956089;28;20525;-67
2022/04/14 08:30:10;;;;;;;18.77;2.75;;;;;;;21.50;21.63;99991.94;4955773;28;20051;-69
2022/04/14 08:32:36;;;;;;;24.65;3.35;;;;;;;20.65;22.68;99994.44;4955227;28;20094;-67
2022/04/14 08:35:03;;;;;;;10.38;1.90;;;;;;;23.42;19.32;99995.63;4971521;28;20490;-68
2022/04/14 08:37:29;;;;;;;13.45;2.70;;;;;;;22.57;21.20;99990.50;4971832;28;20046;-68
2022/04/14 08:39:56;;;;;;;13.90;2.30;;;;;;;21.81;22.07;99999.50;4939816;28;20050;-67
2022/04/14 08:42:25;;;;;;;12.70;2.55;;;;;;;21.75;21.73;99992.94;4971574;28;20046;-68
2022/04/14 08:45:00;;;;;;;14.55;2.83;;;;;;;20.38;22.81;99994.34;4955386;28;20054;-68
2022/04/14 08:47:29;;;;;;;17.02;3.38;;;;;;;22.66;21.22;99986.41;4955908;28;20089;-68
2022/04/14 08:49:58;;;;;;;15.10;2.58;;;;;;;21.15;22.15;99983.91;4955546;28;20145;-69
2022/04/14 08:52:26;;;;;;;5.32;2.00;;;;;;;23.19;19.92;99991.56;4939372;28;20065;-67
2022/04/14 08:54:55;;;;;;;15.88;2.92;;;;;;;21.90;20.94;99960.53;4972983;28;20124;-68
2022/04/14 08:57:24;;;;;;;19.85;3.05;;;;;;;23.20;20.13;99982.22;4971572;28;20447;-66
2022/04/14 08:59:50;;;;;;;17.35;3.53;;;;;;;23.03;21.38;99978.31;4955032;28;20557;-68
2022/04/14 09:02:23;;;;;;;7.10;2.40;;;;;;;24.45;19.11;99976.38;4971171;28;20059;-68
2022/04/14 09:04:49;;;;;;;11.65;2.70;;;;;;;23.49;19.66;99949.47;4971015;28;20038;-67
2022/04/14 09:07:15;;;;;;;9.02;1.88;;;;;;;22.77;19.61;99971.91;4971539;28;20114;-67
2022/04/14 09:09:42;;;;;;;9.23;2.10;;;;;;;23.86;19.47;99957.81;4954682;28;20571;-68
2022/04/14 09:12:08;;;;;;;25.40;2.45;;;;;;;24.24;18.90;99969.44;4954871;28;20070;-68
2022/04/14 09:14:34;;;;;;;8.82;2.10;;;;;;;24.02;19.32;99957.16;4971077;28;20050;-67
2022/04/14 09:17:06;;;;;;;12.27;2.65;;;;;;;23.79;19.52;99961.47;4954795;28;20058;-68
2022/04/14 09:19:33;;;;;;;32.45;3.78;;;;;;;24.18;19.39;99967.59;4970758;28;20057;-68
2022/04/14 09:22:04;;;;;;;11.20;2.63;;;;;;;24.66;19.43;99961.22;4970787;28;20047;-67
2022/04/14 09:24:56;;;;;;;10.75;2.00;;;;;;;23.94;19.14;99971.28;4938664;28;20074;-68
2022/04/14 09:27:29;;;;;;;21.60;3.28;;;;;;;23.00;20.03;99960.34;4972190;28;20098;-67
2022/04/14 09:29:57;;;;;;;17.33;2.88;;;;;;;23.82;18.56;99969.31;4970934;28;20062;-68
2022/04/14 09:32:30;;;;;;;20.40;3.00;;;;;;;23.09;20.27;99958.13;4986388;28;20097;-68
2022/04/14 09:34:57;;;;;;;9.20;2.00;;;;;;;22.21;20.10;99961.69;4970806;28;20111;-67
2022/04/14 09:37:24;;;;;;;7.22;2.00;;;;;;;22.13;19.07;99937.13;4970642;28;20476;-68
2022/04/14 09:40:00;;;;;;;13.88;2.30;;;;;;;22.15;19.11;99963.38;4938484;28;20043;-68
2022/04/14 09:42:33;;;;;;;17.10;2.58;;;;;;;23.04;18.50;99950.53;4970414;28;20430;-68
2022/04/14 09:45:28;;;;;;;9.88;2.00;;;;;;;22.61;19.14;99956.78;4971189;28;20042;-69
2022/04/14 09:48:05;;;;;;;7.32;2.47;;;;;;;23.22;17.91;99941.47;4938932;28;20089;-66
2022/04/14 09:50:43;;;;;;;10.45;2.20;;;;;;;23.46;18.25;99941.66;4954691;28;20050;-67
2022/04/14 09:53:12;;;;;;;12.27;2.45;;;;;;;23.14;19.14;99947.25;4955167;28;20097;-69
2022/04/14 09:55:38;;;;;;;8.38;2.20;;;;;;;24.50;18.45;99956.38;4971426;28;20042;-66
2022/04/14 09:58:09;;;;;;;14.07;2.72;;;;;;;24.57;18.80;99948.78;4970835;28;20146;-67
2022/04/14 10:00:36;;;;;;;8.27;2.85;;;;;;;24.40;19.80;99920.97;4954342;28;20047;-67
2022/04/14 10:03:10;;;;;;;14.95;2.55;;;;;;;24.34;19.38;99943.16;4954017;28;20145;-68
2022/04/14 10:05:36;;;;;;;10.25;3.00;;;;;;;23.21;20.11;99914.94;4971338;28;20509;-68
2022/04/14 10:08:02;;;;;;;14.57;2.67;;;;;;;22.99;20.20;99941.25;4938029;28;20047;-68
2022/04/14 10:10:27;;;;;;;7.22;2.13;;;;;;;22.42;20.69;99937.63;4954165;28;20133;-67
2022/04/14 10:13:07;;;;;;;13.75;3.03;;;;;;;24.10;20.17;99931.16;4970208;28;20141;-68
2022/04/14 10:15:44;;;;;;;10.63;2.47;;;;;;;23.91;20.25;99949.66;4937996;28;20043;-69
2022/04/14 10:18:12;;;;;;;10.82;2.60;;;;;;;23.35;20.64;99946.00;4986126;28;20086;-68
2022/04/14 10:20:41;;;;;;;9.98;2.38;;;;;;;23.48;19.39;99945.88;4986269;28;20141;-68
2022/04/14 10:23:09;;;;;;;11.60;2.33;;;;;;;23.06;20.46;99950.31;4970070;28;20051;-67
2022/04/14 10:25:38;;;;;;;12.77;2.20;;;;;;;23.60;19.95;99943.19;4953840;28;20047;-68
2022/04/14 10:28:09;;;;;;;10.90;2.35;;;;;;;23.86;20.08;99932.94;4970636;28;20559;-70
2022/04/14 10:30:35;;;;;;;17.58;2.67;;;;;;;22.07;21.30;99937.97;4969925;28;20038;-67
2022/04/14 10:33:01;;;;;;;13.45;2.22;;;;;;;23.44;19.98;99939.13;4969747;28;20558;-68
2022/04/14 10:35:29;;;;;;;9.63;2.35;;;;;;;23.49;19.56;99946.72;4969781;28;20595;-69
2022/04/14 10:37:57;;;;;;;7.68;2.00;;;;;;;24.51;18.41;99944.22;4985791;28;20047;-69
2022/04/14 10:40:23;;;;;;;11.43;3.13;;;;;;;24.24;18.26;99950.09;4937845;28;20046;-68
2022/04/14 10:42:52;;;;;;;6.97;1.45;;;;;;;23.52;18.79;99926.94;4969723;28;20418;-67
2022/04/14 10:45:22;;;;;;;10.77;1.98;;;;;;;23.38;19.96;99933.69;4937573;28;20046;-69
2022/04/14 10:47:51;;;;;;;8.10;1.85;;;;;;;23.45;19.00;99920.66;4953315;28;20050;-68
2022/04/14 10:50:33;;;;;;;8.18;1.73;;;;;;;21.99;20.40;99924.47;4971112;28;20062;-67
2022/04/14 10:53:20;;;;;;;7.40;2.03;;;;;;;23.75;19.72;99929.88;4937722;28;20070;-68
2022/04/14 10:55:48;;;;;;;14.55;2.30;;;;;;;22.32;20.96;99929.84;4953272;28;20103;-67
2022/04/14 10:58:26;;;;;;;14.32;2.85;;;;;;;24.36;18.87;99935.50;4941414;28;20149;-68
2022/04/14 11:00:52;;;;;;;10.52;2.22;;;;;;;22.41;20.18;99928.50;4975199;28;20082;-68
2022/04/14 11:03:18;;;;;;;22.00;2.88;;;;;;;22.61;19.85;99922.88;4973663;28;20085;-68
2022/04/14 11:05:47;;;;;;;9.15;2.40;;;;;;;22.32;20.19;99925.16;4957696;28;20038;-69
2022/04/14 11:08:24;;;;;;;9.25;2.70;;;;;;;23.63;20.44;99920.66;4957431;28;20495;-68
2022/04/14 11:11:11;;;;;;;7.75;2.22;;;;;;;23.01;19.82;99906.03;4973312;28;20074;-69
2022/04/14 11:13:52;;;;;;;7.80;2.00;;;;;;;24.39;18.69;99899.06;4941070;28;20074;-69
2022/04/14 11:16:41;;;;;;;;;;;;;;;24.28;18.19;99907.09;4941965;28;20060;-68
2022/04/14 11:19:24;;;;;;;10.38;1.92;;;;;;;23.11;19.23;99900.84;4988725;28;19933;-68
2022/04/14 11:22:02;;;;;;;7.68;2.25;;;;;;;23.11;19.26;99906.38;4941024;28;20093;-68
2022/04/14 11:24:37;;;;;;;16.27;2.22;;;;;;;24.29;18.04;99908.78;4972847;28;20069;-67
2022/04/14 11:27:24;;;;;;;7.30;2.10;;;;;;;22.84;19.40;99894.69;4973259;28;20133;-68
2022/04/14 11:29:53;;;;;;;6.85;1.70;;;;;;;21.79;21.16;99897.91;4972869;28;20384;-68
2022/04/14 11:32:39;;;;;;;13.63;2.28;;;;;;;22.54;20.27;99894.50;4957944;28;20102;-68
2022/04/14 11:35:18;;;;;;;18.25;3.25;;;;;;;21.37;21.22;99905.63;4941266;28;20042;-71